Airfield :
LOGIN :

Register | Disclaimer

   EN    FR    IT 

 










Legend :    VFR   Marginal VFR   IFR   Intensive IFR   Very Intensive IFR
Visi :
Ceiling :
>= 8 km
>= 3000ft
5 to 8 km
1000 to 3000 ft
1500m to 5 km
500 to 1000 ft
800 to 1500m
200 to 500 ft
< 800m
< 200 ft
Symbols :   Thunderstorms  Fog  Heavy snow  Heavy precipitations  Wind > 20 kt
SIGMETs :     Misc.  Thunderstorms  Icing  Turbulence  Mountain Waves  Volcanic Ashes






- Airport Elevation : 200 ft


EBBL - Klein Brogel AB

CURRENT METAR :
  • 160455Z AUTO 21003KT 9999 OVC045/// 00/M02 Q1028 BLU

EXPIRED METARs :
  • 160425Z AUTO 20005KT 9999 OVC045/// 00/M02 Q1028 BLU
  • 160355Z AUTO VRB02KT 9999 OVC045/// 00/M02 Q1028 BLU
  • 160325Z AUTO 18003KT 9999 OVC045/// M00/M02 Q1029 BLU
  • 160255Z AUTO VRB01KT 9999 OVC045/// M00/M02 Q1029 BLU
  • 160225Z AUTO 19003KT 9999 OVC046/// M00/M02 Q1029 BLU

TAF TAF EBBL
Valid from the 15 at 19:00 until the 16 at 07:00 UTC


151541Z 1519/1607 VRB02KT 9999 SCT040
BECMG 1519/1521 4000 BR
PROB30
TEMPO 1522/1607 1500 BR



MET'MAP, your aeronautical weather chart ! - Copyright ORBIFLY December 2007 - Disclaimer

ORBIFLY MET'MAP TEAM :

Programming & Development : Alexandra Zaïnal
Concept & original design : Baudouin d'Aumeries
Assistance for programming : Marc-Olivier Méhu
Technical & hardware support : Manuel Goepfert

Contact : metmap@orbifly.com




SOURCES & CREDITS :

   NOAA